sensor_id;sensor_type;location;lat;lon;timestamp;P1;durP1;ratioP1;P2;durP2;ratioP2
24799;SDS011;12897;50.812;4.430;2023-08-31T00:00:53;3.33;;;1.80;;
24799;SDS011;12897;50.812;4.430;2023-08-31T00:05:47;5.83;;;2.15;;
24799;SDS011;12897;50.812;4.430;2023-08-31T00:08:16;5.50;;;2.05;;
24799;SDS011;12897;50.812;4.430;2023-08-31T00:10:44;4.15;;;2.12;;
24799;SDS011;12897;50.812;4.430;2023-08-31T00:13:13;6.90;;;2.30;;
24799;SDS011;12897;50.812;4.430;2023-08-31T00:15:40;5.80;;;2.10;;
24799;SDS011;12897;50.812;4.430;2023-08-31T00:18:08;4.80;;;2.40;;
24799;SDS011;12897;50.812;4.430;2023-08-31T00:20:36;6.78;;;2.58;;
24799;SDS011;12897;50.812;4.430;2023-08-31T00:23:04;3.75;;;2.30;;
24799;SDS011;12897;50.812;4.430;2023-08-31T00:25:31;3.98;;;2.58;;
24799;SDS011;12897;50.812;4.430;2023-08-31T00:27:59;3.20;;;2.22;;
24799;SDS011;12897;50.812;4.430;2023-08-31T00:30:28;3.92;;;2.60;;
24799;SDS011;12897;50.812;4.430;2023-08-31T00:32:56;9.23;;;2.70;;
24799;SDS011;12897;50.812;4.430;2023-08-31T00:35:26;4.45;;;2.52;;
24799;SDS011;12897;50.812;4.430;2023-08-31T00:37:54;7.40;;;2.77;;
24799;SDS011;12897;50.812;4.430;2023-08-31T00:42:51;4.97;;;2.67;;
24799;SDS011;12897;50.812;4.430;2023-08-31T00:45:19;5.67;;;2.50;;
24799;SDS011;12897;50.812;4.430;2023-08-31T00:47:48;3.30;;;2.40;;
24799;SDS011;12897;50.812;4.430;2023-08-31T00:50:20;6.37;;;2.98;;
24799;SDS011;12897;50.812;4.430;2023-08-31T00:52:47;5.65;;;2.52;;
24799;SDS011;12897;50.812;4.430;2023-08-31T00:55:15;4.28;;;2.50;;
24799;SDS011;12897;50.812;4.430;2023-08-31T00:57:43;6.60;;;2.77;;
24799;SDS011;12897;50.812;4.430;2023-08-31T01:00:12;5.37;;;2.83;;
24799;SDS011;12897;50.812;4.430;2023-08-31T01:02:43;9.13;;;2.67;;
24799;SDS011;12897;50.812;4.430;2023-08-31T01:10:41;4.87;;;2.22;;
24799;SDS011;12897;50.812;4.430;2023-08-31T01:13:18;4.92;;;2.75;;
24799;SDS011;12897;50.812;4.430;2023-08-31T01:15:49;5.78;;;2.60;;
24799;SDS011;12897;50.812;4.430;2023-08-31T01:18:21;5.97;;;2.60;;
24799;SDS011;12897;50.812;4.430;2023-08-31T01:20:59;5.90;;;2.65;;
24799;SDS011;12897;50.812;4.430;2023-08-31T01:23:40;6.65;;;3.67;;
24799;SDS011;12897;50.812;4.430;2023-08-31T01:26:22;4.12;;;2.67;;
24799;SDS011;12897;50.812;4.430;2023-08-31T01:28:51;5.35;;;2.95;;
24799;SDS011;12897;50.812;4.430;2023-08-31T01:31:24;5.30;;;2.55;;
24799;SDS011;12897;50.812;4.430;2023-08-31T01:33:48;6.33;;;2.80;;
24799;SDS011;12897;50.812;4.430;2023-08-31T01:36:23;5.62;;;2.62;;
24799;SDS011;12897;50.812;4.430;2023-08-31T01:39:05;7.42;;;3.10;;
24799;SDS011;12897;50.812;4.430;2023-08-31T01:41:33;7.90;;;3.00;;
24799;SDS011;12897;50.812;4.430;2023-08-31T01:44:05;5.05;;;2.52;;
24799;SDS011;12897;50.812;4.430;2023-08-31T01:46:37;8.28;;;3.10;;
24799;SDS011;12897;50.812;4.430;2023-08-31T01:49:06;7.93;;;3.27;;
24799;SDS011;12897;50.812;4.430;2023-08-31T01:51:33;4.87;;;2.80;;
24799;SDS011;12897;50.812;4.430;2023-08-31T01:54:09;9.58;;;3.27;;
24799;SDS011;12897;50.812;4.430;2023-08-31T01:56:30;7.47;;;2.92;;
24799;SDS011;12897;50.812;4.430;2023-08-31T01:58:58;8.70;;;3.37;;
24799;SDS011;12897;50.812;4.430;2023-08-31T02:01:25;11.73;;;3.52;;
24799;SDS011;12897;50.812;4.430;2023-08-31T02:03:53;8.03;;;2.92;;
24799;SDS011;12897;50.812;4.430;2023-08-31T02:06:22;10.65;;;3.02;;
24799;SDS011;12897;50.812;4.430;2023-08-31T02:08:50;5.62;;;2.98;;
24799;SDS011;12897;50.812;4.430;2023-08-31T02:11:20;8.23;;;3.30;;
24799;SDS011;12897;50.812;4.430;2023-08-31T02:13:48;8.45;;;3.15;;
24799;SDS011;12897;50.812;4.430;2023-08-31T02:16:21;5.87;;;3.08;;
24799;SDS011;12897;50.812;4.430;2023-08-31T02:18:49;6.55;;;3.08;;
24799;SDS011;12897;50.812;4.430;2023-08-31T02:21:16;9.13;;;3.60;;
24799;SDS011;12897;50.812;4.430;2023-08-31T02:23:45;6.95;;;3.55;;
24799;SDS011;12897;50.812;4.430;2023-08-31T02:26:13;9.73;;;3.37;;
24799;SDS011;12897;50.812;4.430;2023-08-31T02:28:41;7.45;;;3.72;;
24799;SDS011;12897;50.812;4.430;2023-08-31T02:31:11;8.73;;;3.83;;
24799;SDS011;12897;50.812;4.430;2023-08-31T02:33:38;8.98;;;3.83;;
24799;SDS011;12897;50.812;4.430;2023-08-31T02:36:06;7.87;;;3.65;;
24799;SDS011;12897;50.812;4.430;2023-08-31T02:38:33;7.17;;;3.70;;
24799;SDS011;12897;50.812;4.430;2023-08-31T02:43:32;7.42;;;3.47;;
24799;SDS011;12897;50.812;4.430;2023-08-31T02:46:01;8.03;;;3.65;;
24799;SDS011;12897;50.812;4.430;2023-08-31T02:48:36;8.78;;;3.65;;
24799;SDS011;12897;50.812;4.430;2023-08-31T02:51:00;7.47;;;3.50;;
24799;SDS011;12897;50.812;4.430;2023-08-31T02:53:31;6.15;;;3.70;;
24799;SDS011;12897;50.812;4.430;2023-08-31T02:56:17;7.87;;;3.92;;
24799;SDS011;12897;50.812;4.430;2023-08-31T02:58:29;7.25;;;3.55;;
24799;SDS011;12897;50.812;4.430;2023-08-31T03:01:13;9.50;;;3.80;;
24799;SDS011;12897;50.812;4.430;2023-08-31T03:03:38;7.45;;;3.37;;
24799;SDS011;12897;50.812;4.430;2023-08-31T03:06:06;8.53;;;3.25;;
24799;SDS011;12897;50.812;4.430;2023-08-31T03:08:39;14.00;;;3.63;;
24799;SDS011;12897;50.812;4.430;2023-08-31T03:11:05;9.68;;;3.95;;
24799;SDS011;12897;50.812;4.430;2023-08-31T03:13:33;7.00;;;3.27;;
24799;SDS011;12897;50.812;4.430;2023-08-31T03:16:00;6.65;;;3.17;;
24799;SDS011;12897;50.812;4.430;2023-08-31T03:18:28;8.50;;;3.67;;
24799;SDS011;12897;50.812;4.430;2023-08-31T03:20:58;8.98;;;3.27;;
24799;SDS011;12897;50.812;4.430;2023-08-31T03:23:28;6.75;;;3.52;;
24799;SDS011;12897;50.812;4.430;2023-08-31T03:25:56;5.00;;;2.90;;
24799;SDS011;12897;50.812;4.430;2023-08-31T03:28:24;8.05;;;3.77;;
24799;SDS011;12897;50.812;4.430;2023-08-31T03:30:55;5.03;;;3.05;;
24799;SDS011;12897;50.812;4.430;2023-08-31T03:33:25;6.83;;;3.35;;
24799;SDS011;12897;50.812;4.430;2023-08-31T03:35:54;8.13;;;3.20;;
24799;SDS011;12897;50.812;4.430;2023-08-31T03:38:23;8.28;;;3.00;;
24799;SDS011;12897;50.812;4.430;2023-08-31T03:40:54;9.88;;;3.08;;
24799;SDS011;12897;50.812;4.430;2023-08-31T03:43:25;7.92;;;3.15;;
24799;SDS011;12897;50.812;4.430;2023-08-31T03:46:02;9.63;;;3.47;;
24799;SDS011;12897;50.812;4.430;2023-08-31T03:48:32;4.37;;;3.02;;
24799;SDS011;12897;50.812;4.430;2023-08-31T03:51:00;5.75;;;3.12;;
24799;SDS011;12897;50.812;4.430;2023-08-31T03:53:27;9.08;;;3.42;;
24799;SDS011;12897;50.812;4.430;2023-08-31T03:56:00;6.58;;;2.90;;
24799;SDS011;12897;50.812;4.430;2023-08-31T03:58:29;7.40;;;3.22;;
24799;SDS011;12897;50.812;4.430;2023-08-31T04:00:56;6.87;;;3.12;;
24799;SDS011;12897;50.812;4.430;2023-08-31T04:03:26;11.25;;;3.20;;
24799;SDS011;12897;50.812;4.430;2023-08-31T04:05:54;5.30;;;3.22;;
24799;SDS011;12897;50.812;4.430;2023-08-31T04:08:23;9.15;;;3.52;;
24799;SDS011;12897;50.812;4.430;2023-08-31T04:10:51;6.22;;;2.95;;
24799;SDS011;12897;50.812;4.430;2023-08-31T04:13:21;6.28;;;3.85;;
24799;SDS011;12897;50.812;4.430;2023-08-31T04:15:52;12.88;;;4.60;;
24799;SDS011;12897;50.812;4.430;2023-08-31T04:18:20;8.35;;;3.95;;
24799;SDS011;12897;50.812;4.430;2023-08-31T04:21:02;11.80;;;3.47;;
24799;SDS011;12897;50.812;4.430;2023-08-31T04:26:13;9.20;;;3.17;;
24799;SDS011;12897;50.812;4.430;2023-08-31T04:28:40;6.33;;;3.00;;
24799;SDS011;12897;50.812;4.430;2023-08-31T04:31:13;5.03;;;3.00;;
24799;SDS011;12897;50.812;4.430;2023-08-31T04:33:41;9.18;;;3.33;;
24799;SDS011;12897;50.812;4.430;2023-08-31T04:36:11;7.35;;;3.35;;
24799;SDS011;12897;50.812;4.430;2023-08-31T04:38:40;6.35;;;3.22;;
24799;SDS011;12897;50.812;4.430;2023-08-31T04:41:12;9.88;;;3.15;;
24799;SDS011;12897;50.812;4.430;2023-08-31T04:43:42;3.98;;;2.85;;
24799;SDS011;12897;50.812;4.430;2023-08-31T04:46:10;7.22;;;3.42;;
24799;SDS011;12897;50.812;4.430;2023-08-31T04:48:39;7.92;;;3.87;;
24799;SDS011;12897;50.812;4.430;2023-08-31T04:54:01;6.42;;;3.02;;
24799;SDS011;12897;50.812;4.430;2023-08-31T04:56:30;5.95;;;3.00;;
24799;SDS011;12897;50.812;4.430;2023-08-31T04:59:01;8.15;;;3.17;;
24799;SDS011;12897;50.812;4.430;2023-08-31T05:01:31;8.30;;;3.60;;
24799;SDS011;12897;50.812;4.430;2023-08-31T05:04:06;6.47;;;3.17;;
24799;SDS011;12897;50.812;4.430;2023-08-31T05:06:35;8.28;;;3.67;;
24799;SDS011;12897;50.812;4.430;2023-08-31T05:09:02;7.40;;;3.52;;
24799;SDS011;12897;50.812;4.430;2023-08-31T05:11:31;9.63;;;3.97;;
24799;SDS011;12897;50.812;4.430;2023-08-31T05:14:02;7.08;;;3.45;;
24799;SDS011;12897;50.812;4.430;2023-08-31T05:16:30;11.85;;;3.83;;
24799;SDS011;12897;50.812;4.430;2023-08-31T05:19:05;9.28;;;3.65;;
24799;SDS011;12897;50.812;4.430;2023-08-31T05:21:29;8.80;;;3.83;;
24799;SDS011;12897;50.812;4.430;2023-08-31T05:23:57;7.17;;;3.72;;
24799;SDS011;12897;50.812;4.430;2023-08-31T05:26:24;6.90;;;3.47;;
24799;SDS011;12897;50.812;4.430;2023-08-31T05:28:53;7.45;;;3.67;;
24799;SDS011;12897;50.812;4.430;2023-08-31T05:31:22;9.20;;;4.15;;
24799;SDS011;12897;50.812;4.430;2023-08-31T05:36:18;11.30;;;3.80;;
24799;SDS011;12897;50.812;4.430;2023-08-31T05:38:46;13.72;;;5.22;;
24799;SDS011;12897;50.812;4.430;2023-08-31T05:41:13;8.48;;;4.22;;
24799;SDS011;12897;50.812;4.430;2023-08-31T05:43:42;8.08;;;4.00;;
24799;SDS011;12897;50.812;4.430;2023-08-31T05:46:11;10.97;;;4.60;;
24799;SDS011;12897;50.812;4.430;2023-08-31T05:48:44;8.40;;;4.10;;
24799;SDS011;12897;50.812;4.430;2023-08-31T05:51:08;7.87;;;3.80;;
24799;SDS011;12897;50.812;4.430;2023-08-31T05:53:36;6.92;;;3.90;;
24799;SDS011;12897;50.812;4.430;2023-08-31T05:56:03;12.28;;;4.83;;
24799;SDS011;12897;50.812;4.430;2023-08-31T05:58:33;12.20;;;4.37;;
24799;SDS011;12897;50.812;4.430;2023-08-31T06:01:02;8.00;;;4.62;;
24799;SDS011;12897;50.812;4.430;2023-08-31T06:03:31;14.93;;;4.37;;
24799;SDS011;12897;50.812;4.430;2023-08-31T06:05:59;12.20;;;4.97;;
24799;SDS011;12897;50.812;4.430;2023-08-31T06:08:27;22.70;;;7.00;;
24799;SDS011;12897;50.812;4.430;2023-08-31T06:10:56;15.93;;;4.50;;
24799;SDS011;12897;50.812;4.430;2023-08-31T06:13:24;15.08;;;4.53;;
24799;SDS011;12897;50.812;4.430;2023-08-31T06:15:53;12.03;;;3.95;;
24799;SDS011;12897;50.812;4.430;2023-08-31T06:18:23;11.68;;;3.70;;
24799;SDS011;12897;50.812;4.430;2023-08-31T06:20:50;11.45;;;4.03;;
24799;SDS011;12897;50.812;4.430;2023-08-31T06:23:22;10.72;;;3.02;;
24799;SDS011;12897;50.812;4.430;2023-08-31T06:25:51;16.40;;;4.53;;
24799;SDS011;12897;50.812;4.430;2023-08-31T06:28:19;14.07;;;3.77;;
24799;SDS011;12897;50.812;4.430;2023-08-31T06:30:52;11.68;;;3.83;;
24799;SDS011;12897;50.812;4.430;2023-08-31T06:33:21;12.70;;;4.58;;
24799;SDS011;12897;50.812;4.430;2023-08-31T06:35:52;8.73;;;3.95;;
24799;SDS011;12897;50.812;4.430;2023-08-31T06:38:21;14.00;;;4.45;;
24799;SDS011;12897;50.812;4.430;2023-08-31T06:41:01;8.53;;;3.17;;
24799;SDS011;12897;50.812;4.430;2023-08-31T06:43:31;15.93;;;3.58;;
24799;SDS011;12897;50.812;4.430;2023-08-31T06:46:01;9.40;;;3.85;;
24799;SDS011;12897;50.812;4.430;2023-08-31T06:48:29;11.38;;;4.03;;
24799;SDS011;12897;50.812;4.430;2023-08-31T06:50:59;12.30;;;3.65;;
24799;SDS011;12897;50.812;4.430;2023-08-31T06:53:30;14.78;;;4.33;;
24799;SDS011;12897;50.812;4.430;2023-08-31T06:56:04;15.65;;;3.95;;
24799;SDS011;12897;50.812;4.430;2023-08-31T06:58:30;11.63;;;3.60;;
24799;SDS011;12897;50.812;4.430;2023-08-31T07:01:00;13.43;;;3.50;;
24799;SDS011;12897;50.812;4.430;2023-08-31T07:03:31;10.65;;;4.05;;
24799;SDS011;12897;50.812;4.430;2023-08-31T07:05:59;17.95;;;4.05;;
24799;SDS011;12897;50.812;4.430;2023-08-31T07:08:29;11.73;;;3.58;;
24799;SDS011;12897;50.812;4.430;2023-08-31T07:10:58;13.80;;;4.30;;
24799;SDS011;12897;50.812;4.430;2023-08-31T07:13:29;15.65;;;4.17;;
24799;SDS011;12897;50.812;4.430;2023-08-31T07:15:59;13.25;;;4.12;;
24799;SDS011;12897;50.812;4.430;2023-08-31T07:18:31;19.27;;;4.08;;
24799;SDS011;12897;50.812;4.430;2023-08-31T07:21:00;10.80;;;3.75;;
24799;SDS011;12897;50.812;4.430;2023-08-31T07:23:31;20.68;;;6.40;;
24799;SDS011;12897;50.812;4.430;2023-08-31T07:26:03;13.28;;;4.12;;
24799;SDS011;12897;50.812;4.430;2023-08-31T07:28:30;12.33;;;4.33;;
24799;SDS011;12897;50.812;4.430;2023-08-31T07:31:05;13.88;;;4.62;;
24799;SDS011;12897;50.812;4.430;2023-08-31T07:33:42;13.25;;;4.15;;
24799;SDS011;12897;50.812;4.430;2023-08-31T07:36:11;12.73;;;3.72;;
24799;SDS011;12897;50.812;4.430;2023-08-31T07:38:40;11.97;;;3.95;;
24799;SDS011;12897;50.812;4.430;2023-08-31T07:41:08;17.55;;;4.25;;
24799;SDS011;12897;50.812;4.430;2023-08-31T07:43:36;11.93;;;4.12;;
24799;SDS011;12897;50.812;4.430;2023-08-31T07:46:04;13.55;;;4.25;;
24799;SDS011;12897;50.812;4.430;2023-08-31T07:48:32;10.30;;;3.77;;
24799;SDS011;12897;50.812;4.430;2023-08-31T07:51:07;14.75;;;4.17;;
24799;SDS011;12897;50.812;4.430;2023-08-31T07:53:36;14.25;;;4.05;;
24799;SDS011;12897;50.812;4.430;2023-08-31T07:56:01;18.87;;;5.20;;
24799;SDS011;12897;50.812;4.430;2023-08-31T07:58:32;10.30;;;3.60;;
24799;SDS011;12897;50.812;4.430;2023-08-31T08:01:03;14.20;;;4.20;;
24799;SDS011;12897;50.812;4.430;2023-08-31T08:03:35;13.38;;;4.58;;
24799;SDS011;12897;50.812;4.430;2023-08-31T08:06:02;18.05;;;4.95;;
24799;SDS011;12897;50.812;4.430;2023-08-31T08:08:33;12.37;;;3.90;;
24799;SDS011;12897;50.812;4.430;2023-08-31T08:13:31;11.28;;;4.65;;
24799;SDS011;12897;50.812;4.430;2023-08-31T08:16:00;7.42;;;3.70;;
24799;SDS011;12897;50.812;4.430;2023-08-31T08:18:30;14.47;;;4.28;;
24799;SDS011;12897;50.812;4.430;2023-08-31T08:20:59;13.20;;;3.90;;
24799;SDS011;12897;50.812;4.430;2023-08-31T08:23:26;23.98;;;4.20;;
24799;SDS011;12897;50.812;4.430;2023-08-31T08:25:54;14.23;;;4.50;;
24799;SDS011;12897;50.812;4.430;2023-08-31T08:28:23;13.80;;;4.70;;
24799;SDS011;12897;50.812;4.430;2023-08-31T08:31:00;11.33;;;3.60;;
24799;SDS011;12897;50.812;4.430;2023-08-31T08:33:27;13.95;;;4.08;;
24799;SDS011;12897;50.812;4.430;2023-08-31T08:35:57;12.40;;;4.65;;
24799;SDS011;12897;50.812;4.430;2023-08-31T08:38:25;11.05;;;4.05;;
24799;SDS011;12897;50.812;4.430;2023-08-31T08:40:54;25.85;;;5.47;;
24799;SDS011;12897;50.812;4.430;2023-08-31T08:43:25;14.47;;;4.03;;
24799;SDS011;12897;50.812;4.430;2023-08-31T08:45:53;24.37;;;6.05;;
24799;SDS011;12897;50.812;4.430;2023-08-31T08:48:23;12.98;;;4.22;;
24799;SDS011;12897;50.812;4.430;2023-08-31T08:50:58;8.43;;;4.10;;
24799;SDS011;12897;50.812;4.430;2023-08-31T08:53:25;12.20;;;3.87;;
24799;SDS011;12897;50.812;4.430;2023-08-31T08:55:58;8.35;;;3.98;;
24799;SDS011;12897;50.812;4.430;2023-08-31T08:58:27;15.45;;;4.10;;
24799;SDS011;12897;50.812;4.430;2023-08-31T09:00:54;10.72;;;3.95;;
24799;SDS011;12897;50.812;4.430;2023-08-31T09:03:25;9.28;;;4.17;;
24799;SDS011;12897;50.812;4.430;2023-08-31T09:05:54;12.88;;;4.15;;
24799;SDS011;12897;50.812;4.430;2023-08-31T09:08:26;11.68;;;4.42;;
24799;SDS011;12897;50.812;4.430;2023-08-31T09:10:57;10.72;;;3.90;;
24799;SDS011;12897;50.812;4.430;2023-08-31T09:13:29;12.23;;;4.00;;
24799;SDS011;12897;50.812;4.430;2023-08-31T09:15:56;9.65;;;4.03;;
24799;SDS011;12897;50.812;4.430;2023-08-31T09:18:28;13.93;;;4.10;;
24799;SDS011;12897;50.812;4.430;2023-08-31T09:21:00;13.60;;;3.98;;
24799;SDS011;12897;50.812;4.430;2023-08-31T09:23:28;13.98;;;4.17;;
24799;SDS011;12897;50.812;4.430;2023-08-31T09:25:59;10.65;;;3.87;;
24799;SDS011;12897;50.812;4.430;2023-08-31T09:28:28;13.40;;;3.80;;
24799;SDS011;12897;50.812;4.430;2023-08-31T09:31:06;9.43;;;3.70;;
24799;SDS011;12897;50.812;4.430;2023-08-31T09:33:35;18.20;;;3.62;;
24799;SDS011;12897;50.812;4.430;2023-08-31T09:36:05;8.85;;;3.87;;
24799;SDS011;12897;50.812;4.430;2023-08-31T09:38:42;13.32;;;4.10;;
24799;SDS011;12897;50.812;4.430;2023-08-31T09:41:12;14.63;;;3.77;;
24799;SDS011;12897;50.812;4.430;2023-08-31T09:43:41;11.68;;;5.05;;
24799;SDS011;12897;50.812;4.430;2023-08-31T09:46:09;11.75;;;3.55;;
24799;SDS011;12897;50.812;4.430;2023-08-31T09:48:39;14.95;;;4.28;;
24799;SDS011;12897;50.812;4.430;2023-08-31T09:51:14;11.20;;;4.17;;
24799;SDS011;12897;50.812;4.430;2023-08-31T09:53:39;11.28;;;4.28;;
24799;SDS011;12897;50.812;4.430;2023-08-31T09:56:08;14.65;;;3.40;;
24799;SDS011;12897;50.812;4.430;2023-08-31T09:58:38;10.70;;;3.83;;
24799;SDS011;12897;50.812;4.430;2023-08-31T10:01:06;13.88;;;4.08;;
24799;SDS011;12897;50.812;4.430;2023-08-31T10:03:33;12.10;;;3.70;;
24799;SDS011;12897;50.812;4.430;2023-08-31T10:06:04;11.08;;;3.80;;
24799;SDS011;12897;50.812;4.430;2023-08-31T10:08:32;15.30;;;4.08;;
24799;SDS011;12897;50.812;4.430;2023-08-31T10:11:00;11.15;;;3.30;;
24799;SDS011;12897;50.812;4.430;2023-08-31T10:16:00;11.60;;;3.02;;
24799;SDS011;12897;50.812;4.430;2023-08-31T10:18:30;14.65;;;3.02;;
24799;SDS011;12897;50.812;4.430;2023-08-31T10:20:58;12.10;;;2.90;;
24799;SDS011;12897;50.812;4.430;2023-08-31T10:23:29;9.10;;;2.70;;
24799;SDS011;12897;50.812;4.430;2023-08-31T10:28:29;7.20;;;2.50;;
24799;SDS011;12897;50.812;4.430;2023-08-31T10:31:03;7.53;;;2.92;;
24799;SDS011;12897;50.812;4.430;2023-08-31T10:33:43;14.20;;;3.15;;
24799;SDS011;12897;50.812;4.430;2023-08-31T10:36:13;13.00;;;2.52;;
24799;SDS011;12897;50.812;4.430;2023-08-31T10:41:35;10.23;;;2.72;;
24799;SDS011;12897;50.812;4.430;2023-08-31T10:44:04;11.35;;;3.10;;
24799;SDS011;12897;50.812;4.430;2023-08-31T10:46:50;11.40;;;2.77;;
24799;SDS011;12897;50.812;4.430;2023-08-31T10:49:24;9.68;;;2.70;;
24799;SDS011;12897;50.812;4.430;2023-08-31T10:52:34;8.20;;;2.95;;
24799;SDS011;12897;50.812;4.430;2023-08-31T10:54:32;11.10;;;2.80;;
24799;SDS011;12897;50.812;4.430;2023-08-31T10:57:04;12.50;;;2.45;;
24799;SDS011;12897;50.812;4.430;2023-08-31T11:02:38;7.22;;;2.70;;
24799;SDS011;12897;50.812;4.430;2023-08-31T11:05:17;10.05;;;2.45;;
24799;SDS011;12897;50.812;4.430;2023-08-31T11:07:49;12.07;;;3.00;;
24799;SDS011;12897;50.812;4.430;2023-08-31T11:10:31;10.03;;;2.90;;
24799;SDS011;12897;50.812;4.430;2023-08-31T11:12:57;12.43;;;2.95;;
24799;SDS011;12897;50.812;4.430;2023-08-31T11:15:26;10.15;;;2.67;;
24799;SDS011;12897;50.812;4.430;2023-08-31T11:17:56;10.58;;;2.40;;
24799;SDS011;12897;50.812;4.430;2023-08-31T11:20:25;8.73;;;2.50;;
24799;SDS011;12897;50.812;4.430;2023-08-31T11:22:56;12.47;;;3.10;;
24799;SDS011;12897;50.812;4.430;2023-08-31T11:25:25;15.32;;;2.33;;
24799;SDS011;12897;50.812;4.430;2023-08-31T11:28:00;7.35;;;2.47;;
24799;SDS011;12897;50.812;4.430;2023-08-31T11:30:35;10.48;;;2.45;;
24799;SDS011;12897;50.812;4.430;2023-08-31T11:35:35;9.65;;;2.75;;
24799;SDS011;12897;50.812;4.430;2023-08-31T11:38:09;7.17;;;2.00;;
24799;SDS011;12897;50.812;4.430;2023-08-31T11:40:40;8.05;;;2.02;;
24799;SDS011;12897;50.812;4.430;2023-08-31T11:43:09;6.42;;;2.25;;
24799;SDS011;12897;50.812;4.430;2023-08-31T11:45:42;5.60;;;2.27;;
24799;SDS011;12897;50.812;4.430;2023-08-31T11:48:11;7.65;;;2.33;;
24799;SDS011;12897;50.812;4.430;2023-08-31T11:50:42;8.70;;;2.27;;
24799;SDS011;12897;50.812;4.430;2023-08-31T11:53:18;7.75;;;2.70;;
24799;SDS011;12897;50.812;4.430;2023-08-31T11:55:51;8.45;;;2.00;;
24799;SDS011;12897;50.812;4.430;2023-08-31T11:58:20;7.65;;;2.27;;
24799;SDS011;12897;50.812;4.430;2023-08-31T12:00:58;9.78;;;2.47;;
24799;SDS011;12897;50.812;4.430;2023-08-31T12:03:37;8.63;;;2.55;;
24799;SDS011;12897;50.812;4.430;2023-08-31T12:05:59;10.32;;;2.62;;
24799;SDS011;12897;50.812;4.430;2023-08-31T12:08:30;13.75;;;2.52;;
24799;SDS011;12897;50.812;4.430;2023-08-31T12:10:59;8.75;;;2.37;;
24799;SDS011;12897;50.812;4.430;2023-08-31T12:13:31;7.05;;;2.40;;
24799;SDS011;12897;50.812;4.430;2023-08-31T12:15:59;9.70;;;2.67;;
24799;SDS011;12897;50.812;4.430;2023-08-31T12:18:31;5.92;;;1.90;;
24799;SDS011;12897;50.812;4.430;2023-08-31T12:20:59;6.67;;;2.15;;
24799;SDS011;12897;50.812;4.430;2023-08-31T12:23:27;14.63;;;2.50;;
24799;SDS011;12897;50.812;4.430;2023-08-31T12:25:54;7.67;;;2.30;;
24799;SDS011;12897;50.812;4.430;2023-08-31T12:28:24;7.37;;;2.50;;
24799;SDS011;12897;50.812;4.430;2023-08-31T12:30:53;6.60;;;2.23;;
24799;SDS011;12897;50.812;4.430;2023-08-31T12:35:51;9.70;;;2.83;;
24799;SDS011;12897;50.812;4.430;2023-08-31T12:38:21;5.85;;;2.10;;
24799;SDS011;12897;50.812;4.430;2023-08-31T12:40:54;10.10;;;2.02;;
24799;SDS011;12897;50.812;4.430;2023-08-31T12:43:28;7.15;;;2.27;;
24799;SDS011;12897;50.812;4.430;2023-08-31T12:45:57;9.23;;;2.20;;
24799;SDS011;12897;50.812;4.430;2023-08-31T12:48:37;5.70;;;1.67;;
24799;SDS011;12897;50.812;4.430;2023-08-31T12:51:01;5.47;;;1.80;;
24799;SDS011;12897;50.812;4.430;2023-08-31T12:53:30;7.75;;;2.83;;
24799;SDS011;12897;50.812;4.430;2023-08-31T12:56:05;4.97;;;1.98;;
24799;SDS011;12897;50.812;4.430;2023-08-31T12:58:33;10.90;;;2.25;;
24799;SDS011;12897;50.812;4.430;2023-08-31T13:01:07;8.63;;;2.25;;
24799;SDS011;12897;50.812;4.430;2023-08-31T13:03:43;6.80;;;2.00;;
24799;SDS011;12897;50.812;4.430;2023-08-31T13:06:15;8.30;;;2.25;;
24799;SDS011;12897;50.812;4.430;2023-08-31T13:08:50;7.15;;;2.10;;
24799;SDS011;12897;50.812;4.430;2023-08-31T13:11:22;6.45;;;2.17;;
24799;SDS011;12897;50.812;4.430;2023-08-31T13:13:51;6.20;;;1.95;;
24799;SDS011;12897;50.812;4.430;2023-08-31T13:16:21;8.68;;;2.33;;
24799;SDS011;12897;50.812;4.430;2023-08-31T13:18:50;14.68;;;2.58;;
24799;SDS011;12897;50.812;4.430;2023-08-31T13:21:17;11.18;;;2.58;;
24799;SDS011;12897;50.812;4.430;2023-08-31T13:23:45;5.47;;;1.85;;
24799;SDS011;12897;50.812;4.430;2023-08-31T13:26:13;8.68;;;2.05;;
24799;SDS011;12897;50.812;4.430;2023-08-31T13:28:41;6.45;;;2.10;;
24799;SDS011;12897;50.812;4.430;2023-08-31T13:31:10;8.23;;;2.15;;
24799;SDS011;12897;50.812;4.430;2023-08-31T13:33:37;7.95;;;2.05;;
24799;SDS011;12897;50.812;4.430;2023-08-31T13:36:05;7.35;;;2.20;;
24799;SDS011;12897;50.812;4.430;2023-08-31T13:38:34;6.12;;;2.20;;
24799;SDS011;12897;50.812;4.430;2023-08-31T13:41:02;6.90;;;2.33;;
24799;SDS011;12897;50.812;4.430;2023-08-31T13:43:30;11.40;;;2.40;;
24799;SDS011;12897;50.812;4.430;2023-08-31T13:45:57;5.55;;;2.20;;
24799;SDS011;12897;50.812;4.430;2023-08-31T13:48:25;8.15;;;2.58;;
24799;SDS011;12897;50.812;4.430;2023-08-31T13:51:01;5.67;;;1.87;;
24799;SDS011;12897;50.812;4.430;2023-08-31T13:53:28;5.35;;;1.90;;
24799;SDS011;12897;50.812;4.430;2023-08-31T13:55:56;8.98;;;2.58;;
24799;SDS011;12897;50.812;4.430;2023-08-31T13:58:27;8.63;;;2.83;;
24799;SDS011;12897;50.812;4.430;2023-08-31T14:01:02;9.73;;;2.75;;
24799;SDS011;12897;50.812;4.430;2023-08-31T14:03:33;11.30;;;3.30;;
24799;SDS011;12897;50.812;4.430;2023-08-31T14:06:02;10.30;;;2.72;;
24799;SDS011;12897;50.812;4.430;2023-08-31T14:08:31;10.00;;;2.52;;
24799;SDS011;12897;50.812;4.430;2023-08-31T14:11:04;4.55;;;1.90;;
24799;SDS011;12897;50.812;4.430;2023-08-31T14:13:28;8.65;;;2.55;;
24799;SDS011;12897;50.812;4.430;2023-08-31T14:15:59;5.80;;;2.25;;
24799;SDS011;12897;50.812;4.430;2023-08-31T14:18:37;6.92;;;2.60;;
24799;SDS011;12897;50.812;4.430;2023-08-31T14:21:09;8.88;;;2.55;;
24799;SDS011;12897;50.812;4.430;2023-08-31T14:23:40;8.55;;;2.05;;
24799;SDS011;12897;50.812;4.430;2023-08-31T14:26:07;10.23;;;2.35;;
24799;SDS011;12897;50.812;4.430;2023-08-31T14:28:37;7.78;;;2.65;;
24799;SDS011;12897;50.812;4.430;2023-08-31T14:31:08;13.40;;;3.37;;
24799;SDS011;12897;50.812;4.430;2023-08-31T14:33:47;9.90;;;2.52;;
24799;SDS011;12897;50.812;4.430;2023-08-31T14:36:14;11.20;;;2.60;;
24799;SDS011;12897;50.812;4.430;2023-08-31T14:41:12;9.50;;;3.22;;
24799;SDS011;12897;50.812;4.430;2023-08-31T14:43:41;8.98;;;3.08;;
24799;SDS011;12897;50.812;4.430;2023-08-31T14:46:14;7.25;;;2.90;;
24799;SDS011;12897;50.812;4.430;2023-08-31T14:48:43;13.48;;;2.60;;
24799;SDS011;12897;50.812;4.430;2023-08-31T14:51:12;12.78;;;2.98;;
24799;SDS011;12897;50.812;4.430;2023-08-31T14:53:41;13.48;;;2.90;;
24799;SDS011;12897;50.812;4.430;2023-08-31T14:58:39;6.37;;;2.42;;
24799;SDS011;12897;50.812;4.430;2023-08-31T15:01:06;12.00;;;2.65;;
24799;SDS011;12897;50.812;4.430;2023-08-31T15:03:43;9.98;;;2.75;;
24799;SDS011;12897;50.812;4.430;2023-08-31T15:06:10;6.05;;;2.75;;
24799;SDS011;12897;50.812;4.430;2023-08-31T15:08:43;7.80;;;3.15;;
24799;SDS011;12897;50.812;4.430;2023-08-31T15:11:17;11.88;;;3.00;;
24799;SDS011;12897;50.812;4.430;2023-08-31T15:13:52;9.08;;;3.37;;
24799;SDS011;12897;50.812;4.430;2023-08-31T15:16:20;13.68;;;3.33;;
24799;SDS011;12897;50.812;4.430;2023-08-31T15:18:53;12.63;;;2.87;;
24799;SDS011;12897;50.812;4.430;2023-08-31T15:21:20;14.40;;;3.02;;
24799;SDS011;12897;50.812;4.430;2023-08-31T15:23:51;11.73;;;2.40;;
24799;SDS011;12897;50.812;4.430;2023-08-31T15:26:21;8.70;;;2.58;;
24799;SDS011;12897;50.812;4.430;2023-08-31T15:28:56;11.78;;;2.47;;
24799;SDS011;12897;50.812;4.430;2023-08-31T15:31:26;10.68;;;2.33;;
24799;SDS011;12897;50.812;4.430;2023-08-31T15:33:56;7.28;;;2.40;;
24799;SDS011;12897;50.812;4.430;2023-08-31T15:36:25;11.18;;;3.17;;
24799;SDS011;12897;50.812;4.430;2023-08-31T15:38:54;13.32;;;3.10;;
24799;SDS011;12897;50.812;4.430;2023-08-31T15:41:21;13.30;;;3.30;;
24799;SDS011;12897;50.812;4.430;2023-08-31T15:43:52;9.58;;;2.83;;